Thunder radar more information blitzortung!


Radar de pluja more information rain snow radar


Visita la nostra xarxa de llocs de meteo:

Template documentation
and downloads

And another site



No particular awareness of the weather is required.    There are no Weather-warnings

Pagina Historial Weather Underground text

Diari Resum May 12, 2017 Unitats:  Mètric    Imperial   Tant
« Previous Dia
SegĂźent Dia »
Diari Setmana Mensual Anual Personalitzada
  Maxima: Minima: Media:
Temperatura: -17.8 °C -11 °C -6.6 °C
Punt de rosada: -17.8 °C -14.2 °C -12.6 °C
Humitat: Humidity % 32 % 52 %
Wind Speed: 0 km/h 0 km/h 14 km/h
RĂ fegues de vent: 0 km/h - -
Vent:- - WSW
Pression baro: 0 hPa 33958.2 hPa -
Precipitacions: 0 mm    
Historical Graphs
 
 
Dades de taula per May 12, 2017
Temps Temperatura Punt de rosada Pression baro Vent Wind Speed RĂ fegues de vent Humitat Rainfall Rate (Hourly)
-17.8 °C -17.8 °C 0 hPa Calm     Humidity % 0 mm
00:01 -9 °C -10.7 °C 33958.2 hPa WSW 3.7 km/h 3.7 km/h 82 % 0 mm
00:05 -10.9 °C -12.3 °C 33992.1 hPa WSW 2.6 km/h 5.1 km/h 84 % 0 mm
00:06 -8.9 °C -10.7 °C 33958.2 hPa WSW 6 km/h 6.3 km/h 82 % 0 mm
00:11 -8.9 °C -10.7 °C 33992.1 hPa WSW 9 km/h 9 km/h 82 % 0 mm
00:15 -10.6 °C -12.2 °C 33992.1 hPa West 2.6 km/h 7.7 km/h 83 % 0 mm
00:25 -10.6 °C -12.3 °C 33992.1 hPa West 2.6 km/h 5.1 km/h 82 % 0 mm
00:35 -10.3 °C -12.1 °C 33992.1 hPa West 2.6 km/h 5.1 km/h 81 % 0 mm
00:45 -10.1 °C -12.1 °C 33992.1 hPa West 2.6 km/h 5.1 km/h 79 % 0 mm
00:55 -9.8 °C -12.1 °C 33992.1 hPa West 5.1 km/h 10.3 km/h 77 % 0 mm
01:05 -9.8 °C -12.2 °C 33992.1 hPa WSW 5.1 km/h 10.3 km/h 76 % 0 mm
01:15 -10.1 °C -12.4 °C 33992.1 hPa WSW 2.6 km/h 2.6 km/h 75 % 0 mm
01:25 -10.2 °C -12.7 °C 33992.1 hPa Calm   2.6 km/h 75 % 0 mm
01:35 -10.4 °C -12.7 °C 33992.1 hPa Calm   2.6 km/h 76 % 0 mm
01:45 -10.8 °C -12.9 °C 33992.1 hPa NE 5.1 km/h 7.7 km/h 78 % 0 mm
01:55 -10.9 °C -13 °C 33992.1 hPa NE 2.6 km/h 5.1 km/h 78 % 0 mm
02:05 -11 °C -12.9 °C 33992.1 hPa Calm   2.6 km/h 79 % 0 mm
02:15 -10.7 °C -12.6 °C 33992.1 hPa West 2.6 km/h 5.1 km/h 80 % 0 mm
02:25 -10.4 °C -12.4 °C 33992.1 hPa North 2.6 km/h 5.1 km/h 79 % 0 mm
02:35 -10.2 °C -12.3 °C 33992.1 hPa NE 2.6 km/h 5.1 km/h 78 % 0 mm
02:45 -10.1 °C -12.2 °C 33992.1 hPa East 5.1 km/h 5.1 km/h 78 % 0 mm
02:55 -9.8 °C -12.1 °C 33992.1 hPa NE 2.6 km/h 5.1 km/h 77 % 0 mm
03:05 -9.9 °C -12.1 °C 33992.1 hPa WSW 2.6 km/h 5.1 km/h 77 % 0 mm
03:15 -9.7 °C -11.9 °C 33992.1 hPa SW 2.6 km/h 5.1 km/h 77 % 0 mm
03:25 -9.2 °C -11.5 °C 33992.1 hPa SSE 2.6 km/h 7.7 km/h 76 % 0 mm
03:35 -9 °C -11.4 °C 34029.3 hPa Calm   5.1 km/h 75 % 0 mm
03:45 -8.6 °C -11.3 °C 34029.3 hPa ENE 2.6 km/h 7.7 km/h 73 % 0 mm
03:55 -8.2 °C -11.1 °C 34029.3 hPa NNE 2.6 km/h 5.1 km/h 71 % 0 mm
04:05 -7.9 °C -11.1 °C 34029.3 hPa North 2.6 km/h 2.6 km/h 69 % 0 mm
04:15 -7.7 °C -11.2 °C 34029.3 hPa North 2.6 km/h 5.1 km/h 67 % 0 mm
04:25 -7.5 °C -10.9 °C 34029.3 hPa NE 5.1 km/h 5.1 km/h 67 % 0 mm
04:35 -7.3 °C -10.6 °C 34029.3 hPa ENE 2.6 km/h 7.7 km/h 68 % 0 mm
04:45 -7.2 °C -10.9 °C 34029.3 hPa WSW 7.7 km/h 7.7 km/h 65 % 0 mm
04:55 -7.1 °C -11.1 °C 34063.2 hPa WSW 5.1 km/h 20.8 km/h 63 % 0 mm
05:05 -7.1 °C -11.3 °C 34029.3 hPa WSW 12.9 km/h 12.9 km/h 61 % 0 mm
05:15 -6.9 °C -11.5 °C 34029.3 hPa West 7.7 km/h 18.2 km/h 59 % 0 mm
05:25 -6.9 °C -11.9 °C 34063.2 hPa West 18.2 km/h 18.2 km/h 56 % 0 mm
10:29 -6.9 °C -12.3 °C 34063.2 hPa NNW 19.6 km/h 19.6 km/h 54 % 0 mm
10:34 -6.8 °C -12.3 °C 34063.2 hPa NW 17.9 km/h 17.9 km/h 53 % 0 mm
10:39 -6.7 °C -12.2 °C 34063.2 hPa West 16.1 km/h 16.1 km/h 53 % 0 mm
10:44 -6.6 °C -11.9 °C 34063.2 hPa WNW 9 km/h 9 km/h 54 % 0 mm
10:49 -6.4 °C -11.9 °C 34063.2 hPa SSE 11.9 km/h 11.9 km/h 53 % 0 mm
10:54 -6.3 °C -11.8 °C 34063.2 hPa NW 11.9 km/h 11.9 km/h 53 % 0 mm
10:59 -6.3 °C -11.8 °C 34063.2 hPa WSW 23.8 km/h 23.8 km/h 53 % 0 mm
11:04 -6.3 °C -12 °C 34063.2 hPa West 23.8 km/h 23.8 km/h 52 % 0 mm
11:09 -6.1 °C -11.8 °C 34063.2 hPa SW 14.5 km/h 14.5 km/h 52 % 0 mm
11:14 -6.4 °C -12.2 °C 34063.2 hPa WNW 20.9 km/h 20.9 km/h 51 % 0 mm
11:19 -6.3 °C -12.1 °C 34063.2 hPa SW 17.9 km/h 17.9 km/h 51 % 0 mm
11:24 -6.2 °C -11.8 °C 34063.2 hPa WSW 11.9 km/h 11.9 km/h 52 % 0 mm
11:29 -6.2 °C -12 °C 34063.2 hPa NW 20.9 km/h 20.9 km/h 51 % 0 mm
11:34 -6.2 °C -12.1 °C 34063.2 hPa South 15.3 km/h 15.3 km/h 51 % 0 mm
11:39 -6.2 °C -12.2 °C 34063.2 hPa West 15 km/h 15 km/h 50 % 0 mm
11:44 -5.9 °C -12 °C 34063.2 hPa SW 20.9 km/h 20.9 km/h 50 % 0 mm
11:50 -5.8 °C -11.7 °C 34063.2 hPa WSW 16.1 km/h 16.1 km/h 51 % 0 mm
11:54 -5.8 °C -12 °C 34063.2 hPa WSW 20.9 km/h 20.9 km/h 49 % 0 mm
11:59 -5.6 °C -11.8 °C 34063.2 hPa West 27.2 km/h 27.2 km/h 49 % 0 mm
12:05 -5.6 °C -11.8 °C 34063.2 hPa SW 14.5 km/h 14.5 km/h 49 % 0 mm
12:09 -5.4 °C -11.7 °C 34063.2 hPa SW 17.9 km/h 17.9 km/h 49 % 0 mm
12:14 -5.3 °C -11.6 °C 34063.2 hPa WSW 15.6 km/h 15.6 km/h 49 % 0 mm
12:19 -5.2 °C -11.4 °C 34063.2 hPa WNW 15 km/h 15 km/h 49 % 0 mm
12:24 -5 °C -11.4 °C 34063.2 hPa SW 11.9 km/h 11.9 km/h 48 % 0 mm
12:29 -5 °C -11.6 °C 34063.2 hPa SW 16.6 km/h 16.6 km/h 47 % 0 mm
12:34 -5.1 °C -11.7 °C 34063.2 hPa West 15 km/h 15 km/h 47 % 0 mm
12:39 -4.9 °C -11.8 °C 34063.2 hPa NW 20.9 km/h 20.9 km/h 46 % 0 mm
12:45 -5 °C -11.8 °C 34063.2 hPa WSW 11.9 km/h 11.9 km/h 46 % 0 mm
12:49 -4.9 °C -11.9 °C 34063.2 hPa West 15 km/h 15 km/h 45 % 0 mm
12:54 -5.1 °C -12.3 °C 34063.2 hPa WSW 26.9 km/h 26.9 km/h 44 % 0 mm
12:59 -4.8 °C -12.1 °C 34063.2 hPa WSW 23.8 km/h 23.8 km/h 44 % 0 mm
13:04 -4.7 °C -11.9 °C 34063.2 hPa WSW 15 km/h 15 km/h 44 % 0 mm
13:09 -4.7 °C -11.9 °C 34029.3 hPa WSW 11.9 km/h 11.9 km/h 44 % 0 mm
13:15 -4.6 °C -11.8 °C 34029.3 hPa West 17.9 km/h 17.9 km/h 44 % 0 mm
13:19 -4.6 °C -12 °C 34029.3 hPa WSW 17.9 km/h 17.9 km/h 43 % 0 mm
13:24 -4.7 °C -12.1 °C 34029.3 hPa WSW 11.9 km/h 11.9 km/h 43 % 0 mm
13:29 -4.7 °C -12.3 °C 34029.3 hPa WSW 20.9 km/h 20.9 km/h 42 % 0 mm
13:34 -4.6 °C -12.2 °C 34029.3 hPa WNW 20.9 km/h 20.9 km/h 42 % 0 mm
13:39 -4.3 °C -11.9 °C 34063.2 hPa West 15 km/h 15 km/h 42 % 0 mm
13:44 -4.5 °C -12.3 °C 34063.2 hPa WNW 11.9 km/h 11.9 km/h 41 % 0 mm
13:49 -4.4 °C -12.3 °C 34063.2 hPa WSW 15 km/h 15 km/h 41 % 0 mm
13:54 -4.2 °C -11.8 °C 34029.3 hPa WSW 11.9 km/h 11.9 km/h 42 % 0 mm
13:59 -4.3 °C -12.1 °C 34029.3 hPa WSW 32.8 km/h 32.8 km/h 41 % 0 mm
14:04 -4.4 °C -12.4 °C 34029.3 hPa WSW 15 km/h 15 km/h 40 % 0 mm
14:10 -4.3 °C -12.4 °C 34063.2 hPa WNW 9.3 km/h 9.3 km/h 40 % 0 mm
14:14 -4.3 °C -12.6 °C 34063.2 hPa NW 20.9 km/h 20.9 km/h 39 % 0 mm
14:20 -4.4 °C -12.6 °C 34063.2 hPa NNW 17.9 km/h 17.9 km/h 39 % 0 mm
14:24 -4.3 °C -12.6 °C 34063.2 hPa WNW 9 km/h 9 km/h 39 % 0 mm
14:30 -4.2 °C -12.4 °C 34063.2 hPa SW 15 km/h 15 km/h 39 % 0 mm
14:35 -4.3 °C -12.6 °C 34063.2 hPa West 20.9 km/h 20.9 km/h 39 % 0 mm
14:40 -4.3 °C -12.6 °C 34063.2 hPa SSW 17.9 km/h 17.9 km/h 39 % 0 mm
14:45 -4.3 °C -12.6 °C 34063.2 hPa SW 15 km/h 15 km/h 39 % 0 mm
14:50 -4.2 °C -12.4 °C 34063.2 hPa WNW 17.9 km/h 17.9 km/h 39 % 0 mm
14:55 -4.2 °C -12.4 °C 34063.2 hPa West 15 km/h 15 km/h 39 % 0 mm
15:00 -4.1 °C -12.6 °C 34063.2 hPa WNW 20.3 km/h 20.3 km/h 38 % 0 mm
15:05 -4.3 °C -12.9 °C 34063.2 hPa WSW 20.9 km/h 20.9 km/h 37 % 0 mm
15:06 -4.2 °C -12.9 °C 34063.2 hPa SW 11.9 km/h 11.9 km/h 37 % 0 mm
15:11 -4.2 °C -13.2 °C 34063.2 hPa WSW 15 km/h 15 km/h 36 % 0 mm
15:16 -4.3 °C -13.2 °C 34063.2 hPa North 20.9 km/h 20.9 km/h 36 % 0 mm
15:21 -4.2 °C -13.2 °C 34063.2 hPa WSW 26.9 km/h 26.9 km/h 36 % 0 mm
15:26 -4.4 °C -13.1 °C 34063.2 hPa WSW 15 km/h 15 km/h 37 % 0 mm
15:31 -4.4 °C -13.3 °C 34063.2 hPa WSW 23.8 km/h 23.8 km/h 36 % 0 mm
15:36 -4.3 °C -13.2 °C 34063.2 hPa WSW 16.6 km/h 16.6 km/h 36 % 0 mm
15:41 -4.1 °C -12.6 °C 34029.3 hPa WSW 6.3 km/h 6.3 km/h 38 % 0 mm
15:46 -3.9 °C -12.9 °C 34029.3 hPa WSW 15 km/h 15.6 km/h 36 % 0 mm
15:51 -3.9 °C -12.8 °C 34029.3 hPa WSW 17.9 km/h 17.9 km/h 36 % 0 mm
15:56 -4.1 °C -12.8 °C 34063.2 hPa SW 15 km/h 15 km/h 37 % 0 mm
16:01 -4 °C -12.7 °C 34063.2 hPa WSW 11.9 km/h 11.9 km/h 37 % 0 mm
16:06 -4 °C -12.9 °C 34063.2 hPa NNW 15 km/h 15 km/h 36 % 0 mm
16:11 -3.9 °C -13.1 °C 34063.2 hPa WSW 15 km/h 15 km/h 35 % 0 mm
16:16 -3.7 °C -12.9 °C 34063.2 hPa WSW 11.9 km/h 11.9 km/h 35 % 0 mm
16:21 -3.7 °C -12.9 °C 34063.2 hPa SSW 20.9 km/h 20.9 km/h 35 % 0 mm
16:26 -3.8 °C -13.3 °C 34063.2 hPa WNW 15 km/h 15 km/h 34 % 0 mm
16:31 -3.7 °C -13.2 °C 34063.2 hPa WSW 16.1 km/h 16.1 km/h 34 % 0 mm
16:33 -3.8 °C -13.4 °C 34063.2 hPa West 15 km/h 15 km/h 33 % 0 mm
16:38 -3.7 °C -13.2 °C 34063.2 hPa SW 15 km/h 15 km/h 34 % 0 mm
16:43 -3.7 °C -13.6 °C 34029.3 hPa SW 17.9 km/h 17.9 km/h 32 % 0 mm
16:48 -3.7 °C -13.7 °C 34029.3 hPa South 15 km/h 15 km/h 32 % 0 mm
16:53 -3.7 °C -13.4 °C 34029.3 hPa WNW 17.9 km/h 17.9 km/h 33 % 0 mm
16:58 -3.9 °C -13.6 °C 34063.2 hPa SW 20.9 km/h 20.9 km/h 33 % 0 mm
17:03 -3.9 °C -13.1 °C 34063.2 hPa WSW 20.9 km/h 20.9 km/h 35 % 0 mm
17:08 -4.1 °C -12.6 °C 34063.2 hPa SW 38.8 km/h 38.8 km/h 38 % 0 mm
17:13 -4.6 °C -12.8 °C 34063.2 hPa SW 23.8 km/h 23.8 km/h 39 % 0 mm
17:18 -4.6 °C -12.6 °C 34063.2 hPa SW 20.9 km/h 20.9 km/h 40 % 0 mm
17:23 -4.9 °C -12.9 °C 34063.2 hPa SSW 15 km/h 15 km/h 40 % 0 mm
17:28 -4.9 °C -12.7 °C 34063.2 hPa WSW 38.8 km/h 38.8 km/h 41 % 0 mm
17:33 -5.1 °C -12.7 °C 34063.2 hPa SSW 23.8 km/h 23.8 km/h 42 % 0 mm
17:38 -5.1 °C -12.7 °C 34063.2 hPa WSW 20.9 km/h 20.9 km/h 42 % 0 mm
17:43 -5.1 °C -12.7 °C 34063.2 hPa SW 26.9 km/h 26.9 km/h 42 % 0 mm
17:48 -5.2 °C -12.7 °C 34063.2 hPa SW 35.7 km/h 35.7 km/h 42 % 0 mm
17:53 -5.1 °C -12.7 °C 34063.2 hPa West 26.9 km/h 26.9 km/h 42 % 0 mm
17:58 -5.1 °C -12.6 °C 34063.2 hPa SW 23.8 km/h 23.8 km/h 42 % 0 mm
18:03 -5.2 °C -12.7 °C 34063.2 hPa SE 23.8 km/h 23.8 km/h 42 % 0 mm
18:08 -5.1 °C -12.6 °C 34063.2 hPa SW 15 km/h 15 km/h 42 % 0 mm
18:13 -5 °C -12.7 °C 34063.2 hPa WSW 20.9 km/h 20.9 km/h 41 % 0 mm
18:18 -5 °C -12.7 °C 34063.2 hPa SW 20.9 km/h 20.9 km/h 41 % 0 mm
18:23 -5.1 °C -12.8 °C 34063.2 hPa West 20.9 km/h 20.9 km/h 41 % 0 mm
18:28 -5.2 °C -12.9 °C 34063.2 hPa SSW 26.9 km/h 26.9 km/h 41 % 0 mm
18:33 -5.1 °C -12.9 °C 34063.2 hPa WSW 29.8 km/h 29.8 km/h 41 % 0 mm
18:38 -5.1 °C -12.8 °C 34063.2 hPa SW 20.9 km/h 20.9 km/h 41 % 0 mm
18:43 -5.1 °C -13.1 °C 34063.2 hPa West 27.2 km/h 27.2 km/h 40 % 0 mm
18:48 -5.1 °C -13.1 °C 34063.2 hPa WSW 15 km/h 15 km/h 40 % 0 mm
18:53 -5.2 °C -13.1 °C 34063.2 hPa WSW 26.9 km/h 26.9 km/h 40 % 0 mm
18:58 -5.3 °C -13.2 °C 34097 hPa SW 35.7 km/h 35.7 km/h 40 % 0 mm
19:03 -5.3 °C -13.2 °C 34097 hPa SSW 17.9 km/h 17.9 km/h 40 % 0 mm
19:08 -5.3 °C -13.3 °C 34097 hPa SW 26.9 km/h 26.9 km/h 40 % 0 mm
19:13 -5.4 °C -13.3 °C 34097 hPa SSW 30.6 km/h 30.6 km/h 40 % 0 mm
19:18 -5.4 °C -13.4 °C 34097 hPa SSW 38.8 km/h 38.8 km/h 40 % 0 mm
19:23 -5.5 °C -13.4 °C 34097 hPa SW 20.9 km/h 20.9 km/h 40 % 0 mm
19:28 -5.7 °C -13.6 °C 34097 hPa SW 17.9 km/h 17.9 km/h 40 % 0 mm
19:33 -5.7 °C -13.6 °C 34097 hPa WSW 20.9 km/h 20.9 km/h 40 % 0 mm
19:38 -5.8 °C -13.7 °C 34097 hPa WSW 32.8 km/h 32.8 km/h 40 % 0 mm
19:43 -6 °C -13.8 °C 34097 hPa SW 23.8 km/h 23.8 km/h 40 % 0 mm
19:48 -6.2 °C -13.8 °C 34097 hPa SW 17.9 km/h 17.9 km/h 41 % 0 mm
19:53 -6.2 °C -13.8 °C 34097 hPa SSW 26.9 km/h 26.9 km/h 41 % 0 mm
19:58 -6.3 °C -13.9 °C 34097 hPa WSW 17.9 km/h 17.9 km/h 41 % 0 mm
20:03 -6.4 °C -14.2 °C 34097 hPa WSW 15 km/h 15 km/h 40 % 0 mm
20:08 -6.4 °C -14.1 °C 34097 hPa West 17.9 km/h 17.9 km/h 41 % 0 mm
20:13 -6.4 °C -14.1 °C 34130.9 hPa SW 20.9 km/h 20.9 km/h 41 % 0 mm
20:18 -6.4 °C -13.8 °C 34130.9 hPa South 23.8 km/h 23.8 km/h 42 % 0 mm
20:23 -6.5 °C -13.7 °C 34130.9 hPa SW 17.9 km/h 17.9 km/h 43 % 0 mm
20:28 -6.6 °C -13.6 °C 34164.7 hPa SSW 17.9 km/h 17.9 km/h 44 % 0 mm
20:33 -6.7 °C -13.5 °C 34164.7 hPa SW 17.9 km/h 17.9 km/h 45 % 0 mm
20:38 -6.8 °C -13.2 °C 34164.7 hPa SW 15.3 km/h 15.3 km/h 47 % 0 mm
20:43 -6.9 °C -13.2 °C 34130.9 hPa WSW 19.2 km/h 19.2 km/h 48 % 0 mm
20:48 -6.9 °C -13.1 °C 34130.9 hPa SW 15 km/h 15 km/h 49 % 0 mm
20:53 -7.1 °C -13 °C 34130.9 hPa West 20.9 km/h 20.9 km/h 50 % 0 mm
20:58 -7.2 °C -12.9 °C 34130.9 hPa WSW 20.9 km/h 20.9 km/h 51 % 0 mm
21:03 -7.2 °C -12.8 °C 34130.9 hPa SSW 15 km/h 15 km/h 52 % 0 mm
21:08 -7.3 °C -12.6 °C 34130.9 hPa WSW 15 km/h 15 km/h 54 % 0 mm
21:13 -7.4 °C -12.7 °C 34164.7 hPa WSW 15 km/h 15 km/h 54 % 0 mm
21:18 -7.5 °C -12.6 °C 34164.7 hPa WSW 16.1 km/h 16.1 km/h 55 % 0 mm
21:23 -7.6 °C -12.6 °C 34164.7 hPa WSW 15.3 km/h 15.3 km/h 56 % 0 mm
21:28 -7.6 °C -12.6 °C 34164.7 hPa WSW 15 km/h 15 km/h 56 % 0 mm
21:33 -7.7 °C -12.4 °C 34164.7 hPa SSW 9 km/h 9 km/h 57 % 0 mm
21:38 -7.8 °C -12.4 °C 34164.7 hPa SW 9 km/h 9 km/h 58 % 0 mm
21:43 -7.8 °C -12.5 °C 34198.6 hPa WSW 6 km/h 6.3 km/h 58 % 0 mm
21:48 -7.9 °C -12.6 °C 34198.6 hPa SSW 9 km/h 9 km/h 58 % 0 mm
21:53 -7.9 °C -12.4 °C 34198.6 hPa WSW 9 km/h 9 km/h 59 % 0 mm
21:58 -8 °C -12.5 °C 34198.6 hPa SSW 9 km/h 9 km/h 59 % 0 mm
22:03 -8.1 °C -12.6 °C 34198.6 hPa WSW 11.9 km/h 11.9 km/h 59 % 0 mm
22:08 -8.2 °C -12.6 °C 34198.6 hPa SW 9 km/h 9 km/h 60 % 0 mm
22:13 -8.2 °C -12.6 °C 34198.6 hPa SW 11.9 km/h 11.9 km/h 60 % 0 mm
22:18 -8.3 °C -12.5 °C 34198.6 hPa WSW 9 km/h 9.3 km/h 61 % 0 mm
22:23 -8.3 °C -12.6 °C 34198.6 hPa WSW 6.3 km/h 6.3 km/h 61 % 0 mm
22:25 -9.7 °C -12.8 °C 34222.3 hPa Calm     69 % 0 mm
22:28 -8.3 °C -12.6 °C 34198.6 hPa West 9 km/h 9 km/h 61 % 0 mm
22:33 -8.3 °C -12.6 °C 34198.6 hPa WNW 3.7 km/h 3.7 km/h 61 % 0 mm
22:35 -9.8 °C -12.9 °C 34222.3 hPa SW 2.6 km/h 5.1 km/h 69 % 0 mm
22:39 -8.3 °C -12.5 °C 34198.6 hPa West 9 km/h 9 km/h 61 % 0 mm
22:44 -8.3 °C -12.4 °C 34198.6 hPa WSW 6 km/h 6 km/h 62 % 0 mm
22:45 -9.8 °C -12.9 °C 34222.3 hPa Calm   2.6 km/h 69 % 0 mm
22:49 -8.3 °C -12.4 °C 34198.6 hPa SW 3.1 km/h   62 % 0 mm
22:54 -8.3 °C -12.4 °C 34198.6 hPa West 3.1 km/h 3.1 km/h 62 % 0 mm
22:55 -10 °C -13.1 °C 34222.3 hPa West 2.6 km/h 5.1 km/h 69 % 0 mm
22:59 -8.3 °C -12.4 °C 34198.6 hPa WSW 3.1 km/h   62 % 0 mm
23:04 -8.4 °C -12.3 °C 34198.6 hPa SW 6 km/h 6 km/h 63 % 0 mm
23:05 -10.1 °C -13.2 °C 34222.3 hPa WSW 2.6 km/h 7.7 km/h 69 % 0 mm
23:09 -8.4 °C -12.3 °C 34198.6 hPa NW 6 km/h   64 % 0 mm
23:14 -8.4 °C -12.3 °C 34198.6 hPa WSW 6.8 km/h 6.8 km/h 64 % 0 mm
23:15 -10 °C -13 °C 34222.3 hPa WSW 2.6 km/h 7.7 km/h 70 % 0 mm
23:19 -8.5 °C -12.3 °C 34198.6 hPa SSW 6 km/h 6 km/h 64 % 0 mm
23:24 -8.6 °C -12.3 °C 34198.6 hPa SW 6 km/h 6 km/h 64 % 0 mm
23:25 -9.9 °C -13 °C 34222.3 hPa West 5.1 km/h 5.1 km/h 69 % 0 mm
23:29 -8.7 °C -12.5 °C 34198.6 hPa SW 6.3 km/h 6.3 km/h 64 % 0 mm
23:34 -8.9 °C -12.6 °C 34198.6 hPa SW 6.3 km/h 6.3 km/h 65 % 0 mm
23:35 -10 °C -13 °C 34222.3 hPa WNW 2.6 km/h 5.1 km/h 70 % 0 mm
23:39 -8.9 °C -12.6 °C 34198.6 hPa WSW 6 km/h 6 km/h 65 % 0 mm
23:44 -8.9 °C -12.6 °C 34198.6 hPa SW 9 km/h 9 km/h 65 % 0 mm
23:45 -9.9 °C -12.9 °C 34222.3 hPa Calm   5.1 km/h 70 % 0 mm
23:49 -8.9 °C -12.4 °C 34198.6 hPa SW 6.3 km/h 6.3 km/h 66 % 0 mm
23:54 -8.9 °C -12.4 °C 34198.6 hPa WSW 10.3 km/h 10.3 km/h 66 % 0 mm
23:55 -9.9 °C -12.9 °C 34256.2 hPa Calm   5.1 km/h 70 % 0 mm
23:59 -8.8 °C -12.3 °C 34222.3 hPa WSW 17.9 km/h 17.9 km/h 67 % 0 mm
Meteo Sesrovires
Elogis d' Weather Underground - 3.5 mb

Guio original per  Jim McMurry - jmcmurry@mwt.net Adaptat per a la plantilla per  Wim van der Kuil - Leuven-Template.eu

Trobareu la nostra informacio del temps tambe a:

Weather Underground

AWEKAS